KWLD/WLD METAR and TAF weather

Enter ICAO airport designator
Station Type Date Time Source
KWLD METAR 2024/02/26 17:54 UTC NOAA

KWLD 261754Z AUTO 25007KT 10SM CLR 22/02 A2968 RMK AO2 SLP045 T02220022 10222 20039 58012


Station Type Date Time Source
KWLD Decoded METAR 2024/02/26 17:54 UTC NOAA

STROTHER FIELD, KS, United States (KWLD) 37-10N 97-02W 350M
Feb 26, 2024 - 12:54 PM EST / 2024.02.26 1754 UTC
Wind: from the WSW (250 degrees) at 8 MPH (7 KT):0
Visibility: 10 mile(s):0
Sky conditions: clear
Temperature: 72.0 F (22.2 C)
Dew Point: 36.0 F (2.2 C)
Relative Humidity: 26%
Pressure (altimeter): 29.68 in. Hg (1005 hPa)
Pressure tendency: 0.04 inches (1.2 hPa) lower than three hours ago
ob: KWLD 261754Z AUTO 25007KT 10SM CLR 22/02 A2968 RMK AO2 SLP045 T02220022 10222 20039 58012
cycle: 18

Station Type Date Time Source
KWLD TAF UTC NOAA

Error!

Example: see airport list